createdAt,value
2022-11-16T00:01:12.125Z,151192.56
2022-11-16T00:03:38.464Z,151197.63
2022-11-16T00:06:05.994Z,151198.88
2022-11-16T00:08:43.299Z,151177.38
2022-11-16T00:11:15.557Z,151167.25
2022-11-16T00:13:42.836Z,151133.09
2022-11-16T00:16:17.354Z,151152.06
2022-11-16T00:18:44.065Z,151152.06
2022-11-16T00:21:10.372Z,151171.03
2022-11-16T00:23:37.992Z,151149.53
2022-11-16T00:26:08.804Z,151174.84
2022-11-16T00:28:35.851Z,151159.66
2022-11-16T00:31:03.743Z,151184.94
2022-11-16T00:33:29.689Z,151187.47
2022-11-16T00:35:55.483Z,151200.13
2022-11-16T00:38:21.568Z,151182.44
2022-11-16T00:40:47.671Z,151179.91
2022-11-16T00:43:13.515Z,151139.44
2022-11-16T00:45:42.050Z,151129.31
2022-11-16T00:48:08.161Z,151153.38
2022-11-16T00:50:33.948Z,151145.75
2022-11-16T00:52:59.723Z,151159.66
2022-11-16T00:55:25.531Z,151126.78
2022-11-16T00:57:51.266Z,151112.84
2022-11-16T01:00:17.536Z,151115.38
2022-11-16T01:02:43.344Z,151125.50
2022-11-16T01:05:10.450Z,151098.94
2022-11-16T01:07:38.071Z,151112.84
2022-11-16T01:10:11.291Z,151102.75
2022-11-16T01:12:37.212Z,151102.75
2022-11-16T01:15:05.405Z,151110.34
2022-11-16T01:17:31.220Z,151107.81
2022-11-16T01:19:57.058Z,151076.19
2022-11-16T01:22:22.856Z,151091.38
2022-11-16T01:24:48.674Z,151106.53
2022-11-16T01:27:14.448Z,151092.63
2022-11-16T01:29:40.499Z,151117.94
2022-11-16T01:32:06.369Z,151114.13
2022-11-16T01:34:32.350Z,151125.50
2022-11-16T01:36:58.139Z,151116.63
2022-11-16T01:39:23.894Z,151105.28
2022-11-16T01:41:49.630Z,151081.28
2022-11-16T01:44:30.449Z,151104.03
2022-11-16T01:47:00.675Z,151119.22
2022-11-16T01:49:30.105Z,151102.75
2022-11-16T01:52:02.475Z,151128.03
2022-11-16T01:54:30.349Z,151104.03
2022-11-16T01:56:59.651Z,151100.25
2022-11-16T01:59:25.952Z,151107.81
2022-11-16T02:01:51.696Z,151101.50
2022-11-16T02:04:17.444Z,151121.72
2022-11-16T02:06:52.057Z,151109.06
2022-11-16T02:09:54.576Z,151131.81
2022-11-16T02:13:03.657Z,151105.28
2022-11-16T02:15:44.274Z,151095.16
2022-11-16T02:18:36.618Z,151107.81
2022-11-16T02:21:08.548Z,151100.25
2022-11-16T02:24:16.877Z,151126.78
2022-11-16T02:27:00.662Z,151120.47
2022-11-16T02:29:34.788Z,151134.34
2022-11-16T02:32:03.748Z,151136.91
2022-11-16T02:34:39.944Z,151128.03
2022-11-16T02:37:08.749Z,151143.22
2022-11-16T02:39:36.534Z,151152.06
2022-11-16T02:42:07.466Z,151147.00
2022-11-16T02:44:36.926Z,151157.16
2022-11-16T02:47:10.688Z,151147.00
2022-11-16T02:49:41.778Z,151167.25
2022-11-16T02:52:09.457Z,151171.03
2022-11-16T02:54:35.173Z,151167.25
2022-11-16T02:57:03.784Z,151144.47
2022-11-16T02:59:41.993Z,151165.97
2022-11-16T03:02:18.076Z,151154.63
2022-11-16T03:04:48.254Z,151157.16
2022-11-16T03:07:18.019Z,151164.72
2022-11-16T03:09:47.827Z,151152.06
2022-11-16T03:12:19.426Z,151169.75
2022-11-16T03:14:51.374Z,151159.66
2022-11-16T03:17:23.037Z,151154.63
2022-11-16T03:20:00.555Z,151155.88
2022-11-16T03:22:38.707Z,151159.66
2022-11-16T03:25:06.234Z,151152.06
2022-11-16T03:27:44.243Z,151136.91
2022-11-16T03:30:23.393Z,151126.78
2022-11-16T03:32:49.601Z,151112.84
2022-11-16T03:35:26.458Z,151130.56
2022-11-16T03:37:55.342Z,151117.94
2022-11-16T03:40:23.174Z,151136.91
2022-11-16T03:42:49.382Z,151139.44
2022-11-16T03:45:16.614Z,151109.06
2022-11-16T03:47:42.348Z,151135.66
2022-11-16T03:50:09.163Z,151134.34
2022-11-16T05:46:50.771Z,151015.50
2022-11-16T05:49:16.889Z,151021.81
2022-11-16T05:51:44.398Z,151048.38
2022-11-16T05:54:16.305Z,151029.44
2022-11-16T05:56:42.594Z,151037.00
2022-11-16T05:59:11.199Z,151050.91
2022-11-16T06:01:41.230Z,151064.84
2022-11-16T06:04:07.210Z,151053.44
2022-11-16T06:06:33.390Z,151030.69
2022-11-16T06:08:59.124Z,151033.22
2022-11-16T06:11:25.003Z,151026.84
2022-11-16T06:13:51.007Z,151071.13
2022-11-16T06:16:16.775Z,151034.47
2022-11-16T06:18:45.117Z,151053.44
2022-11-16T06:21:11.899Z,151044.56
2022-11-16T06:23:37.773Z,151020.56
2022-11-16T06:26:04.794Z,151034.47
2022-11-16T06:28:30.779Z,151016.75
2022-11-16T06:30:56.700Z,151015.50
2022-11-16T06:33:22.837Z,150990.19
2022-11-16T06:35:48.624Z,150975.06
2022-11-16T06:38:17.886Z,150969.97
2022-11-16T06:40:56.002Z,150983.88
2022-11-16T06:43:22.575Z,150976.31
2022-11-16T06:45:53.178Z,151002.84
2022-11-16T06:48:19.524Z,150981.38
2022-11-16T06:50:48.494Z,150976.31
2022-11-16T06:53:14.455Z,150995.28
2022-11-16T06:55:40.244Z,150971.22
2022-11-16T06:58:06.086Z,150978.84
2022-11-16T07:00:32.421Z,150968.72
2022-11-16T07:02:58.258Z,150969.97
2022-11-16T07:05:24.019Z,150973.81
2022-11-16T07:07:54.335Z,150953.53
2022-11-16T07:10:21.019Z,150983.88
2022-11-16T07:12:46.869Z,150957.38
2022-11-16T07:15:12.795Z,150977.59
2022-11-16T07:17:38.963Z,150994.03
2022-11-16T07:20:05.151Z,151006.63
2022-11-16T07:22:31.978Z,150994.03
2022-11-16T07:24:57.745Z,151001.59
2022-11-16T07:27:23.513Z,151009.16
2022-11-16T07:29:49.334Z,150977.59
2022-11-16T07:32:15.151Z,150986.41
2022-11-16T07:34:40.909Z,151001.59
2022-11-16T07:37:06.797Z,151024.34
2022-11-16T07:39:32.583Z,151047.13
2022-11-16T07:41:58.339Z,151040.78
2022-11-16T07:44:24.084Z,150990.19
2022-11-16T07:46:49.883Z,151023.06
2022-11-16T07:49:17.577Z,151012.97
2022-11-16T07:51:44.870Z,150991.50
2022-11-16T07:54:14.778Z,150990.19
2022-11-16T07:56:41.302Z,151001.59
2022-11-16T07:59:07.432Z,151009.16
2022-11-16T08:01:34.450Z,150971.22
2022-11-16T08:04:01.090Z,150982.63
2022-11-16T08:06:29.639Z,151012.97
2022-11-16T08:08:58.543Z,151023.06
2022-11-16T08:11:25.441Z,151019.28
2022-11-16T08:13:51.306Z,151045.88
2022-11-16T08:16:19.943Z,151066.09
2022-11-16T08:18:46.268Z,151076.19
2022-11-16T08:21:14.134Z,151081.28
2022-11-16T08:23:40.932Z,151081.28
2022-11-16T08:26:13.833Z,151063.56
2022-11-16T08:28:41.314Z,151073.66
2022-11-16T08:31:12.861Z,151031.94
2022-11-16T08:33:38.830Z,151048.38
2022-11-16T08:36:11.070Z,151054.69
2022-11-16T08:38:39.923Z,151083.78
2022-11-16T08:41:06.599Z,151074.91
2022-11-16T08:43:33.134Z,151104.03
2022-11-16T08:45:59.639Z,151150.78
2022-11-16T08:48:25.473Z,151154.63
2022-11-16T08:51:16.082Z,151177.38
2022-11-16T08:53:37.111Z,151183.69
2022-11-16T08:56:04.144Z,151167.25
2022-11-16T08:58:30.108Z,151090.09
2022-11-16T09:00:56.945Z,151119.22
2022-11-16T09:03:22.778Z,151159.66
2022-11-16T09:05:48.568Z,151210.28
2022-11-16T09:08:14.352Z,151263.41
2022-11-16T09:10:40.078Z,151288.72
2022-11-16T09:13:05.962Z,151317.84
2022-11-16T09:15:32.100Z,151363.41
2022-11-16T09:17:57.836Z,151320.34
2022-11-16T09:20:23.640Z,151284.91
2022-11-16T09:22:49.503Z,151392.53
2022-11-16T09:25:15.237Z,151534.34
2022-11-16T09:27:40.996Z,151720.53
2022-11-16T09:30:07.597Z,151904.31
2022-11-16T09:32:33.383Z,152104.72
2022-11-16T09:34:59.177Z,152809.44
2022-11-16T09:37:25.032Z,153411.13
2022-11-16T09:39:51.516Z,153873.50
2022-11-16T09:42:45.676Z,155061.97
2022-11-16T09:45:24.150Z,154478.09
2022-11-16T09:47:58.673Z,154622.38
2022-11-16T09:50:58.604Z,154318.66
2022-11-16T09:53:54.722Z,153658.16
2022-11-16T09:56:26.371Z,152860.25
2022-11-16T09:59:03.357Z,152740.84
2022-11-16T10:01:47.146Z,152655.66
2022-11-16T10:04:21.724Z,152631.50
2022-11-16T10:07:01.213Z,152321.66
2022-11-16T10:09:28.777Z,152086.91
2022-11-16T10:12:06.270Z,151900.53
2022-11-16T10:15:00.937Z,151958.84
2022-11-16T10:17:52.001Z,151999.38
2022-11-16T10:20:45.753Z,152314.06
2022-11-16T10:23:16.943Z,152085.63
2022-11-16T10:25:45.616Z,151787.75
2022-11-16T10:28:34.122Z,152123.72
2022-11-16T10:31:23.652Z,153485.00
2022-11-16T10:33:54.807Z,154170.66
2022-11-16T10:36:26.645Z,154207.63
2022-11-16T10:38:56.221Z,154762.91
2022-11-16T10:41:39.065Z,155807.81
2022-11-16T10:44:26.332Z,156370.25
2022-11-16T10:47:02.296Z,155947.38
2022-11-16T10:49:36.822Z,156028.13
2022-11-16T10:52:02.451Z,155958.91
2022-11-16T10:54:28.732Z,155966.59
2022-11-16T10:57:03.971Z,156479.25
2022-11-16T10:59:41.754Z,156775.56
2022-11-16T11:02:30.555Z,156814.03
2022-11-16T11:05:02.264Z,156744.72
2022-11-16T11:07:36.932Z,157003.94
2022-11-16T11:10:05.191Z,156961.63
2022-11-16T11:12:39.861Z,157009.06
2022-11-16T11:15:11.681Z,157305.75
2022-11-16T11:17:43.030Z,157390.47
2022-11-16T11:20:15.013Z,157255.63
2022-11-16T11:22:57.132Z,156074.22
2022-11-16T11:25:32.751Z,156216.47
2022-11-16T11:28:16.233Z,155396.97
2022-11-16T11:30:59.419Z,155706.63
2022-11-16T11:33:29.015Z,155942.28
2022-11-16T11:36:20.282Z,155600.41
2022-11-16T11:38:56.654Z,155590.22
2022-11-16T11:41:23.196Z,155495.44
2022-11-16T11:44:30.162Z,155038.88
2022-11-16T11:50:03.904Z,154980.13
2022-11-16T11:53:01.713Z,154728.41
2022-11-16T11:55:28.578Z,154411.78
2022-11-16T11:57:55.836Z,154138.75
2022-11-16T12:00:23.056Z,153528.28
2022-11-16T12:03:16.561Z,154140.03
2022-11-16T12:05:51.107Z,154966.03
2022-11-16T12:08:28.076Z,155691.25
2022-11-16T12:11:05.485Z,155258.81
2022-11-16T12:13:31.290Z,155354.75
2022-11-16T12:16:21.148Z,155453.25
2022-11-16T12:19:07.906Z,155547.91
2022-11-16T12:21:33.645Z,156085.75
2022-11-16T12:24:22.979Z,155362.41
2022-11-16T12:27:09.104Z,154632.63
2022-11-16T12:30:00.439Z,154001.00
2022-11-16T12:33:22.951Z,153826.38
2022-11-16T12:35:59.039Z,153394.56
2022-11-16T12:39:00.644Z,153226.56
2022-11-16T12:42:01.601Z,153230.44
2022-11-16T12:44:36.457Z,152942.91
2022-11-16T12:47:18.080Z,152743.38
2022-11-16T12:49:52.827Z,152488.03
2022-11-16T12:52:32.113Z,152414.34
2022-11-16T12:55:39.895Z,152471.53
2022-11-16T12:58:05.756Z,152752.25
2022-11-16T13:00:48.493Z,152705.25
2022-11-16T13:03:22.882Z,152364.84
2022-11-16T13:05:57.028Z,152216.38
2022-11-16T13:08:43.337Z,152041.28
2022-11-16T13:11:15.551Z,152017.16
2022-11-16T13:13:45.721Z,152029.84
2022-11-16T13:16:16.586Z,151882.78
2022-11-16T13:18:43.441Z,151988.00
2022-11-16T13:21:23.936Z,151984.22
2022-11-16T13:24:24.853Z,151858.72
2022-11-16T13:27:00.977Z,151804.22
2022-11-16T13:29:40.695Z,151715.47
2022-11-16T13:32:31.729Z,151652.09
2022-11-16T13:34:59.485Z,151545.72
2022-11-16T13:37:37.207Z,151520.41
2022-11-16T13:40:03.842Z,151535.59
2022-11-16T13:42:32.057Z,151534.34
2022-11-16T13:45:19.981Z,151514.09
2022-11-16T13:47:51.676Z,151491.25
2022-11-16T13:50:20.746Z,151498.88
2022-11-16T13:55:55.362Z,151414.06
2022-11-16T13:58:22.676Z,151434.31
2022-11-16T14:01:15.933Z,151464.69
2022-11-16T14:03:43.847Z,151402.66
2022-11-16T14:06:12.336Z,151345.66
2022-11-16T14:08:38.090Z,151415.31
2022-11-16T14:11:24.899Z,151455.81
2022-11-16T14:13:51.038Z,151452.03
2022-11-16T14:16:20.646Z,151445.72
2022-11-16T14:18:58.591Z,151441.91
2022-11-16T14:21:43.221Z,151460.91
2022-11-16T14:24:31.049Z,151441.91
2022-11-16T14:26:59.800Z,151454.53
2022-11-16T14:29:45.861Z,151435.56
2022-11-16T14:32:28.195Z,151482.41
2022-11-16T14:34:56.295Z,151536.88
2022-11-16T14:37:21.978Z,151562.19
2022-11-16T14:39:57.000Z,151597.63
2022-11-16T14:42:26.470Z,151559.66
2022-11-16T14:45:05.637Z,151576.13
2022-11-16T14:47:35.456Z,151545.72
2022-11-16T14:50:01.771Z,151569.81
2022-11-16T14:52:50.317Z,151540.66
2022-11-16T14:55:20.334Z,151505.19
2022-11-16T14:57:46.230Z,151496.38
2022-11-16T15:00:24.153Z,151452.03
2022-11-16T15:02:57.604Z,151424.19
2022-11-16T15:05:29.754Z,151412.78
2022-11-16T15:07:59.402Z,151367.19
2022-11-16T15:10:28.449Z,151391.28
2022-11-16T15:12:57.012Z,151411.53
2022-11-16T15:15:28.844Z,151368.47
2022-11-16T15:18:06.342Z,151355.84
2022-11-16T15:20:36.049Z,151353.28
2022-11-16T15:23:04.256Z,151353.28
2022-11-16T15:25:40.449Z,151319.09
2022-11-16T15:28:17.556Z,151308.94
2022-11-16T15:31:09.310Z,151293.75
2022-11-16T15:33:38.410Z,151335.53
2022-11-16T15:36:24.607Z,151325.41
2022-11-16T15:38:55.935Z,151341.84
2022-11-16T15:41:23.086Z,151320.34
2022-11-16T15:44:13.621Z,151296.28
2022-11-16T15:46:42.205Z,151297.59
2022-11-16T15:49:31.886Z,151301.38
2022-11-16T15:51:58.213Z,151319.09
2022-11-16T15:54:28.160Z,151321.63
2022-11-16T15:57:11.341Z,151316.56
2022-11-16T15:59:37.267Z,151288.72
2022-11-16T16:02:03.924Z,151301.38
2022-11-16T16:04:29.964Z,151314.00
2022-11-16T16:06:58.307Z,151297.59
2022-11-16T16:09:33.629Z,151310.22
2022-11-16T16:12:21.300Z,151314.00
2022-11-16T16:14:49.100Z,151320.34
2022-11-16T16:17:22.648Z,151278.56
2022-11-16T16:20:04.378Z,151279.88
2022-11-16T16:22:32.729Z,151292.50
2022-11-16T16:24:59.890Z,151288.72
2022-11-16T16:27:27.831Z,151283.66
2022-11-16T16:29:55.844Z,151260.84
2022-11-16T16:32:24.494Z,151241.88
2022-11-16T16:34:52.216Z,151268.47
2022-11-16T16:37:18.263Z,151225.47
2022-11-16T16:39:44.201Z,151215.31
2022-11-16T16:42:12.994Z,151211.53
2022-11-16T16:44:39.762Z,151192.56
2022-11-16T16:47:05.914Z,151178.63
2022-11-16T16:49:31.816Z,151186.22
2022-11-16T16:51:57.945Z,151176.13
2022-11-16T16:54:24.300Z,151186.22
2022-11-16T16:56:50.675Z,151183.69
2022-11-16T16:59:16.806Z,151172.34
2022-11-16T17:01:42.635Z,151181.16
2022-11-16T17:04:08.440Z,151181.16
2022-11-16T17:06:34.437Z,151182.44
2022-11-16T17:09:00.226Z,151140.69
2022-11-16T17:11:26.029Z,151129.31
2022-11-16T17:13:51.881Z,151157.16
2022-11-16T17:16:17.631Z,151163.47
2022-11-16T17:18:44.005Z,151200.13
2022-11-16T17:21:09.934Z,151167.25
2022-11-16T17:23:36.788Z,151164.72
2022-11-16T17:26:07.201Z,151155.88
2022-11-16T17:28:33.564Z,151144.47
2022-11-16T17:31:04.783Z,151120.47
2022-11-16T17:33:39.255Z,151114.13
2022-11-16T17:36:06.813Z,151114.13
2022-11-16T17:38:33.754Z,151102.75
2022-11-16T17:41:08.583Z,151087.59
2022-11-16T17:43:34.661Z,151071.13
2022-11-16T17:46:05.874Z,151030.69
2022-11-16T17:48:31.811Z,151059.75
2022-11-16T17:50:57.757Z,151050.91
2022-11-16T17:53:26.152Z,151055.94
2022-11-16T17:55:54.408Z,151059.75
2022-11-16T17:58:20.768Z,151093.88
2022-11-16T18:00:48.691Z,151077.44
2022-11-16T18:03:14.696Z,151038.25
2022-11-16T18:05:40.597Z,151015.50
2022-11-16T18:08:07.355Z,151005.38
2022-11-16T18:10:36.600Z,150996.53
2022-11-16T18:13:03.851Z,150987.66
2022-11-16T18:15:41.940Z,150997.81
2022-11-16T18:18:08.150Z,151000.31
2022-11-16T18:20:36.846Z,150964.94
2022-11-16T18:23:03.952Z,150975.06
2022-11-16T18:25:29.962Z,150991.50
2022-11-16T18:27:55.797Z,150978.84
2022-11-16T18:30:22.900Z,150982.63
2022-11-16T18:32:49.480Z,150992.75
2022-11-16T18:35:15.861Z,150992.75
2022-11-16T18:37:41.753Z,150977.59
2022-11-16T18:40:08.471Z,150954.78
2022-11-16T18:42:34.336Z,150954.78
2022-11-16T18:45:00.244Z,150940.91
2022-11-16T18:47:26.238Z,150939.66
2022-11-16T18:49:52.067Z,150966.19
2022-11-16T18:52:17.875Z,150986.41
2022-11-16T18:54:43.620Z,150948.50
2022-11-16T18:57:09.499Z,150943.44
2022-11-16T18:59:35.402Z,150939.66
2022-11-16T19:02:01.213Z,150903.00
2022-11-16T19:04:27.911Z,150854.91
2022-11-16T19:06:54.146Z,150843.53
2022-11-16T19:09:19.922Z,150873.88
2022-11-16T19:11:45.825Z,150894.13
2022-11-16T19:14:11.649Z,150899.19
2022-11-16T19:16:38.882Z,150877.66
2022-11-16T19:19:07.798Z,150861.22
2022-11-16T19:21:33.623Z,150884.00
2022-11-16T19:23:59.419Z,150863.75
2022-11-16T19:26:26.817Z,150833.44
2022-11-16T19:28:53.242Z,150856.19
2022-11-16T19:31:21.762Z,150838.47
2022-11-16T19:33:47.872Z,150863.75
2022-11-16T19:36:16.116Z,150868.84
2022-11-16T19:38:43.049Z,150871.34
2022-11-16T19:41:10.334Z,150871.34
2022-11-16T19:43:36.579Z,150854.91
2022-11-16T19:46:03.410Z,150846.06
2022-11-16T19:48:31.348Z,150858.69
2022-11-16T19:51:03.279Z,150832.19
2022-11-16T19:53:29.025Z,150872.63
2022-11-16T19:55:54.870Z,150848.63
2022-11-16T19:58:20.719Z,150873.88
2022-11-16T20:00:46.630Z,150881.44
2022-11-16T20:03:12.383Z,150870.09
2022-11-16T20:05:38.186Z,150878.91
2022-11-16T20:08:03.936Z,150854.91
2022-11-16T20:10:30.106Z,150866.31
2022-11-16T20:12:56.124Z,150833.44
2022-11-16T20:15:24.635Z,150843.53
2022-11-16T20:17:51.551Z,150830.94
2022-11-16T20:20:17.430Z,150849.88
2022-11-16T20:22:43.212Z,150881.44
2022-11-16T20:25:10.123Z,150885.25
2022-11-16T20:27:35.927Z,150881.44
2022-11-16T20:30:06.370Z,150892.88
2022-11-16T20:32:34.999Z,150897.91
2022-11-16T20:35:00.829Z,150903.00
2022-11-16T20:37:26.979Z,150918.13
2022-11-16T20:39:56.387Z,150948.50
2022-11-16T20:42:23.006Z,150913.09
2022-11-16T20:44:48.783Z,150932.06
2022-11-16T20:47:14.563Z,150930.78
2022-11-16T20:49:40.364Z,150932.06
2022-11-16T20:52:06.172Z,150921.97
2022-11-16T20:54:32.762Z,150932.06
2022-11-16T20:56:58.626Z,150921.97
2022-11-16T20:59:24.537Z,150945.97
2022-11-16T21:01:53.354Z,150924.50
2022-11-16T21:04:19.913Z,150928.28
2022-11-16T21:06:46.215Z,150939.66
2022-11-16T21:09:14.902Z,150915.63
2022-11-16T21:11:59.164Z,150913.09
2022-11-16T21:14:25.261Z,150930.78
2022-11-16T21:16:51.028Z,150945.97
2022-11-16T21:19:16.859Z,150939.66
2022-11-16T21:21:42.599Z,150947.22
2022-11-16T21:24:09.153Z,150952.28
2022-11-16T21:26:36.405Z,150923.22
2022-11-16T21:29:03.269Z,150919.44
2022-11-16T21:31:31.506Z,150903.00
2022-11-16T21:33:59.953Z,150908.06
2022-11-16T21:36:28.179Z,150909.31
2022-11-16T21:38:54.530Z,150906.78
2022-11-16T21:41:22.342Z,150913.09
2022-11-16T21:43:48.852Z,150915.63
2022-11-16T21:46:16.034Z,150958.63
2022-11-16T21:48:42.141Z,150916.88
2022-11-16T21:51:10.345Z,150911.84
2022-11-16T21:53:37.423Z,150913.09
2022-11-16T21:56:04.718Z,150935.84
2022-11-16T21:58:30.625Z,150935.84
2022-11-16T22:00:59.152Z,150939.66
2022-11-16T22:03:28.011Z,150949.75
2022-11-16T22:06:13.611Z,150966.19
2022-11-16T22:08:39.812Z,150924.50
2022-11-16T22:11:07.108Z,150938.41
2022-11-16T22:13:33.704Z,150916.88
2022-11-16T22:16:12.105Z,150925.75
2022-11-16T22:18:38.696Z,150921.97
2022-11-16T22:21:05.044Z,150940.91
2022-11-16T22:23:31.795Z,150981.38
2022-11-16T22:26:03.007Z,150963.66
2022-11-16T22:28:29.700Z,150937.09
2022-11-16T22:31:06.982Z,150923.22
2022-11-16T22:33:33.564Z,150925.75
2022-11-16T22:35:59.769Z,150939.66
2022-11-16T22:38:26.124Z,150919.44
2022-11-16T22:40:53.561Z,150894.13
2022-11-16T22:43:20.754Z,150909.31
2022-11-16T22:45:46.604Z,150924.50
2022-11-16T22:48:12.697Z,150918.13
2022-11-16T22:50:38.518Z,150901.75
2022-11-16T22:53:04.380Z,150894.13
2022-11-16T22:55:33.296Z,150906.78
2022-11-16T22:57:59.071Z,150940.91
2022-11-16T23:00:24.862Z,150944.72
2022-11-16T23:02:51.428Z,150899.19
2022-11-16T23:05:17.271Z,150924.50
2022-11-16T23:07:43.196Z,150935.84
2022-11-16T23:10:09.281Z,150932.06
2022-11-16T23:12:53.792Z,150933.31
2022-11-16T23:15:57.995Z,150951.00
2022-11-16T23:18:23.749Z,150934.56
2022-11-16T23:21:08.042Z,150924.50
2022-11-16T23:23:52.045Z,150919.44
2022-11-16T23:26:41.654Z,150915.63
2022-11-16T23:29:09.734Z,150925.75
2022-11-16T23:31:36.533Z,150944.72
2022-11-16T23:34:02.480Z,150910.56
2022-11-16T23:36:28.244Z,150904.28
2022-11-16T23:38:54.005Z,150911.84
2022-11-16T23:41:38.281Z,150929.53
2022-11-16T23:44:04.148Z,150937.09
2022-11-16T23:46:31.852Z,150923.22
2022-11-16T23:48:58.299Z,150949.75
2022-11-16T23:51:24.460Z,150929.53
2022-11-16T23:53:51.924Z,150920.69
2022-11-16T23:56:19.414Z,150921.97
2022-11-16T23:58:45.566Z,150925.75
